sensor_id;sensor_type;location;lat;lon;timestamp;temperature;humidity
49777;DHT22;35673;51.482;7.436;2023-02-18T00:01:09;11.00;99.90
49777;DHT22;35673;51.482;7.436;2023-02-18T00:03:35;11.00;99.90
49777;DHT22;35673;51.482;7.436;2023-02-18T00:06:09;11.00;99.90
49777;DHT22;35673;51.482;7.436;2023-02-18T00:08:34;11.10;99.90
49777;DHT22;35673;51.482;7.436;2023-02-18T00:11:00;11.10;99.90
49777;DHT22;35673;51.482;7.436;2023-02-18T00:13:25;11.10;99.90
49777;DHT22;35673;51.482;7.436;2023-02-18T00:15:50;11.00;99.90
49777;DHT22;35673;51.482;7.436;2023-02-18T00:18:16;11.00;99.90
49777;DHT22;35673;51.482;7.436;2023-02-18T00:20:41;11.00;99.90
49777;DHT22;35673;51.482;7.436;2023-02-18T00:23:07;11.00;99.90
49777;DHT22;35673;51.482;7.436;2023-02-18T00:25:32;11.00;99.90
49777;DHT22;35673;51.482;7.436;2023-02-18T00:27:58;11.00;99.90
49777;DHT22;35673;51.482;7.436;2023-02-18T00:30:23;11.00;99.90
49777;DHT22;35673;51.482;7.436;2023-02-18T00:32:49;11.00;99.90
49777;DHT22;35673;51.482;7.436;2023-02-18T00:35:14;11.00;99.90
49777;DHT22;35673;51.482;7.436;2023-02-18T00:37:39;11.00;99.90
49777;DHT22;35673;51.482;7.436;2023-02-18T00:40:05;11.00;99.90
49777;DHT22;35673;51.482;7.436;2023-02-18T00:42:31;11.10;99.90
49777;DHT22;35673;51.482;7.436;2023-02-18T00:44:56;11.10;99.90
49777;DHT22;35673;51.482;7.436;2023-02-18T00:47:22;11.00;99.90
49777;DHT22;35673;51.482;7.436;2023-02-18T00:49:47;11.00;99.90
49777;DHT22;35673;51.482;7.436;2023-02-18T00:52:13;11.00;99.90
49777;DHT22;35673;51.482;7.436;2023-02-18T00:54:38;11.00;99.90
49777;DHT22;35673;51.482;7.436;2023-02-18T00:57:03;11.00;99.90
49777;DHT22;35673;51.482;7.436;2023-02-18T00:59:29;11.10;99.90
49777;DHT22;35673;51.482;7.436;2023-02-18T01:01:54;11.00;99.90
49777;DHT22;35673;51.482;7.436;2023-02-18T01:04:20;11.00;99.90
49777;DHT22;35673;51.482;7.436;2023-02-18T01:06:45;11.00;99.90
49777;DHT22;35673;51.482;7.436;2023-02-18T01:09:11;11.00;99.90
49777;DHT22;35673;51.482;7.436;2023-02-18T01:11:36;11.00;99.90
49777;DHT22;35673;51.482;7.436;2023-02-18T01:14:02;11.00;99.90
49777;DHT22;35673;51.482;7.436;2023-02-18T01:16:27;11.00;99.90
49777;DHT22;35673;51.482;7.436;2023-02-18T01:18:53;10.90;99.90
49777;DHT22;35673;51.482;7.436;2023-02-18T01:21:18;10.90;99.90
49777;DHT22;35673;51.482;7.436;2023-02-18T01:23:44;10.90;99.90
49777;DHT22;35673;51.482;7.436;2023-02-18T01:26:10;10.90;99.90
49777;DHT22;35673;51.482;7.436;2023-02-18T01:28:35;10.80;99.90
49777;DHT22;35673;51.482;7.436;2023-02-18T01:31:05;10.80;99.90
49777;DHT22;35673;51.482;7.436;2023-02-18T01:33:31;10.80;99.90
49777;DHT22;35673;51.482;7.436;2023-02-18T01:35:56;10.80;99.90
49777;DHT22;35673;51.482;7.436;2023-02-18T01:38:22;10.80;99.90
49777;DHT22;35673;51.482;7.436;2023-02-18T01:40:48;10.80;99.90
49777;DHT22;35673;51.482;7.436;2023-02-18T01:43:15;10.80;99.90
49777;DHT22;35673;51.482;7.436;2023-02-18T01:45:45;10.70;99.90
49777;DHT22;35673;51.482;7.436;2023-02-18T01:48:22;10.70;99.90
49777;DHT22;35673;51.482;7.436;2023-02-18T01:50:50;10.70;99.90
49777;DHT22;35673;51.482;7.436;2023-02-18T01:53:19;10.80;99.90
49777;DHT22;35673;51.482;7.436;2023-02-18T01:55:46;10.70;99.90
49777;DHT22;35673;51.482;7.436;2023-02-18T01:58:12;10.70;99.90
49777;DHT22;35673;51.482;7.436;2023-02-18T02:00:37;10.70;99.90
49777;DHT22;35673;51.482;7.436;2023-02-18T02:03:03;10.80;99.90
49777;DHT22;35673;51.482;7.436;2023-02-18T02:05:30;10.80;99.90
49777;DHT22;35673;51.482;7.436;2023-02-18T02:07:56;10.80;99.90
49777;DHT22;35673;51.482;7.436;2023-02-18T02:10:21;10.80;99.90
49777;DHT22;35673;51.482;7.436;2023-02-18T02:16:05;10.80;99.90
49777;DHT22;35673;51.482;7.436;2023-02-18T02:18:20;10.80;99.90
49777;DHT22;35673;51.482;7.436;2023-02-18T02:31:49;10.80;99.90
49777;DHT22;35673;51.482;7.436;2023-02-18T02:39:32;10.90;99.90
49777;DHT22;35673;51.482;7.436;2023-02-18T02:44:31;10.90;99.90
49777;DHT22;35673;51.482;7.436;2023-02-18T02:47:01;10.90;99.90
49777;DHT22;35673;51.482;7.436;2023-02-18T02:49:32;10.90;99.90
49777;DHT22;35673;51.482;7.436;2023-02-18T02:54:29;10.90;99.90
49777;DHT22;35673;51.482;7.436;2023-02-18T02:59:29;10.90;99.90
49777;DHT22;35673;51.482;7.436;2023-02-18T03:02:15;10.90;99.90
49777;DHT22;35673;51.482;7.436;2023-02-18T03:12:35;11.00;99.90
49777;DHT22;35673;51.482;7.436;2023-02-18T03:20:15;10.90;99.90
49777;DHT22;35673;51.482;7.436;2023-02-18T03:22:44;10.90;99.90
49777;DHT22;35673;51.482;7.436;2023-02-18T03:25:10;11.00;99.90
49777;DHT22;35673;51.482;7.436;2023-02-18T03:27:40;10.90;99.90
49777;DHT22;35673;51.482;7.436;2023-02-18T03:30:12;10.90;99.90
49777;DHT22;35673;51.482;7.436;2023-02-18T03:32:38;10.90;99.90
49777;DHT22;35673;51.482;7.436;2023-02-18T03:35:08;10.90;99.90
49777;DHT22;35673;51.482;7.436;2023-02-18T03:37:34;10.80;99.90
49777;DHT22;35673;51.482;7.436;2023-02-18T03:40:01;10.70;99.90
49777;DHT22;35673;51.482;7.436;2023-02-18T03:42:27;10.70;99.90
49777;DHT22;35673;51.482;7.436;2023-02-18T03:44:53;10.70;99.90
49777;DHT22;35673;51.482;7.436;2023-02-18T03:47:18;10.60;99.90
49777;DHT22;35673;51.482;7.436;2023-02-18T03:49:44;10.60;99.90
49777;DHT22;35673;51.482;7.436;2023-02-18T03:52:09;10.60;99.90
49777;DHT22;35673;51.482;7.436;2023-02-18T03:54:35;10.60;99.90
49777;DHT22;35673;51.482;7.436;2023-02-18T03:57:01;10.60;99.90
49777;DHT22;35673;51.482;7.436;2023-02-18T03:59:26;10.60;99.90
49777;DHT22;35673;51.482;7.436;2023-02-18T04:01:52;10.60;99.90
49777;DHT22;35673;51.482;7.436;2023-02-18T04:04:17;10.60;99.90
49777;DHT22;35673;51.482;7.436;2023-02-18T04:06:43;10.60;99.90
49777;DHT22;35673;51.482;7.436;2023-02-18T04:09:08;10.50;99.90
49777;DHT22;35673;51.482;7.436;2023-02-18T04:11:35;10.60;99.90
49777;DHT22;35673;51.482;7.436;2023-02-18T04:14:00;10.60;99.90
49777;DHT22;35673;51.482;7.436;2023-02-18T04:16:26;10.60;99.90
49777;DHT22;35673;51.482;7.436;2023-02-18T04:18:51;10.60;99.90
49777;DHT22;35673;51.482;7.436;2023-02-18T04:21:16;10.60;99.90
49777;DHT22;35673;51.482;7.436;2023-02-18T04:23:42;10.60;99.90
49777;DHT22;35673;51.482;7.436;2023-02-18T04:26:07;10.60;99.90
49777;DHT22;35673;51.482;7.436;2023-02-18T04:28:33;10.60;99.90
49777;DHT22;35673;51.482;7.436;2023-02-18T04:30:58;10.60;99.90
49777;DHT22;35673;51.482;7.436;2023-02-18T04:33:24;10.60;99.90
49777;DHT22;35673;51.482;7.436;2023-02-18T04:35:49;10.60;99.90
49777;DHT22;35673;51.482;7.436;2023-02-18T04:38:15;10.50;99.90
49777;DHT22;35673;51.482;7.436;2023-02-18T04:40:40;10.40;99.90
49777;DHT22;35673;51.482;7.436;2023-02-18T04:43:06;10.40;99.90
49777;DHT22;35673;51.482;7.436;2023-02-18T04:45:31;10.40;99.90
49777;DHT22;35673;51.482;7.436;2023-02-18T04:47:57;10.50;99.90
49777;DHT22;35673;51.482;7.436;2023-02-18T04:50:22;10.50;99.90
49777;DHT22;35673;51.482;7.436;2023-02-18T04:52:48;10.60;99.90
49777;DHT22;35673;51.482;7.436;2023-02-18T04:55:13;10.50;99.90
49777;DHT22;35673;51.482;7.436;2023-02-18T04:57:39;10.60;99.90
49777;DHT22;35673;51.482;7.436;2023-02-18T05:00:06;10.60;99.90
49777;DHT22;35673;51.482;7.436;2023-02-18T05:02:32;10.60;99.90
49777;DHT22;35673;51.482;7.436;2023-02-18T05:04:57;10.60;99.90
49777;DHT22;35673;51.482;7.436;2023-02-18T05:07:23;10.50;99.90
49777;DHT22;35673;51.482;7.436;2023-02-18T05:09:48;10.50;99.90
49777;DHT22;35673;51.482;7.436;2023-02-18T05:12:14;10.40;99.90
49777;DHT22;35673;51.482;7.436;2023-02-18T05:14:39;10.40;99.90
49777;DHT22;35673;51.482;7.436;2023-02-18T05:17:05;10.30;99.90
49777;DHT22;35673;51.482;7.436;2023-02-18T05:19:30;10.40;99.90
49777;DHT22;35673;51.482;7.436;2023-02-18T05:21:56;10.30;99.90
49777;DHT22;35673;51.482;7.436;2023-02-18T05:24:21;10.30;99.90
49777;DHT22;35673;51.482;7.436;2023-02-18T05:26:47;10.30;99.90
49777;DHT22;35673;51.482;7.436;2023-02-18T05:29:12;10.30;99.90
49777;DHT22;35673;51.482;7.436;2023-02-18T05:31:37;10.30;99.90
49777;DHT22;35673;51.482;7.436;2023-02-18T05:34:03;10.30;99.90
49777;DHT22;35673;51.482;7.436;2023-02-18T05:36:28;10.20;99.90
49777;DHT22;35673;51.482;7.436;2023-02-18T05:38:54;10.20;99.90
49777;DHT22;35673;51.482;7.436;2023-02-18T05:41:19;10.20;99.90
49777;DHT22;35673;51.482;7.436;2023-02-18T05:43:45;10.20;99.90
49777;DHT22;35673;51.482;7.436;2023-02-18T05:46:29;10.20;99.90
49777;DHT22;35673;51.482;7.436;2023-02-18T05:48:54;10.20;99.90
49777;DHT22;35673;51.482;7.436;2023-02-18T05:51:20;10.20;99.90
49777;DHT22;35673;51.482;7.436;2023-02-18T05:53:45;10.20;99.90
49777;DHT22;35673;51.482;7.436;2023-02-18T05:56:10;10.20;99.90
49777;DHT22;35673;51.482;7.436;2023-02-18T05:58:36;10.20;99.90
49777;DHT22;35673;51.482;7.436;2023-02-18T06:01:01;10.10;99.90
49777;DHT22;35673;51.482;7.436;2023-02-18T06:03:27;10.10;99.90
49777;DHT22;35673;51.482;7.436;2023-02-18T06:05:52;10.10;99.90
49777;DHT22;35673;51.482;7.436;2023-02-18T06:08:18;10.10;99.90
49777;DHT22;35673;51.482;7.436;2023-02-18T06:10:46;10.10;99.90
49777;DHT22;35673;51.482;7.436;2023-02-18T06:13:12;10.10;99.90
49777;DHT22;35673;51.482;7.436;2023-02-18T06:15:37;10.10;99.90
49777;DHT22;35673;51.482;7.436;2023-02-18T06:18:03;10.10;99.90
49777;DHT22;35673;51.482;7.436;2023-02-18T06:20:29;10.10;99.90
49777;DHT22;35673;51.482;7.436;2023-02-18T06:22:54;10.10;99.90
49777;DHT22;35673;51.482;7.436;2023-02-18T06:25:20;10.10;99.90
49777;DHT22;35673;51.482;7.436;2023-02-18T06:27:45;10.10;99.90
49777;DHT22;35673;51.482;7.436;2023-02-18T06:30:11;10.00;99.90
49777;DHT22;35673;51.482;7.436;2023-02-18T06:32:37;10.10;99.90
49777;DHT22;35673;51.482;7.436;2023-02-18T06:35:02;10.10;99.90
49777;DHT22;35673;51.482;7.436;2023-02-18T06:37:27;10.00;99.90
49777;DHT22;35673;51.482;7.436;2023-02-18T06:39:53;10.00;99.90
49777;DHT22;35673;51.482;7.436;2023-02-18T06:42:18;10.00;99.90
49777;DHT22;35673;51.482;7.436;2023-02-18T06:44:44;10.00;99.90
49777;DHT22;35673;51.482;7.436;2023-02-18T06:47:09;10.00;99.90
49777;DHT22;35673;51.482;7.436;2023-02-18T06:49:35;10.00;99.90
49777;DHT22;35673;51.482;7.436;2023-02-18T06:52:00;9.90;99.90
49777;DHT22;35673;51.482;7.436;2023-02-18T06:54:26;10.00;99.90
49777;DHT22;35673;51.482;7.436;2023-02-18T06:56:51;10.00;99.90
49777;DHT22;35673;51.482;7.436;2023-02-18T06:59:18;10.10;99.90
49777;DHT22;35673;51.482;7.436;2023-02-18T07:01:43;10.00;99.90
49777;DHT22;35673;51.482;7.436;2023-02-18T07:04:09;10.00;99.90
49777;DHT22;35673;51.482;7.436;2023-02-18T07:06:35;10.00;99.90
49777;DHT22;35673;51.482;7.436;2023-02-18T07:09:00;9.90;99.90
49777;DHT22;35673;51.482;7.436;2023-02-18T07:11:26;10.00;99.90
49777;DHT22;35673;51.482;7.436;2023-02-18T07:13:51;9.90;99.90
49777;DHT22;35673;51.482;7.436;2023-02-18T07:16:16;9.90;99.90
49777;DHT22;35673;51.482;7.436;2023-02-18T07:18:42;9.90;99.90
49777;DHT22;35673;51.482;7.436;2023-02-18T07:21:07;9.90;99.90
49777;DHT22;35673;51.482;7.436;2023-02-18T07:23:33;9.90;99.90
49777;DHT22;35673;51.482;7.436;2023-02-18T07:26:06;9.90;99.90
49777;DHT22;35673;51.482;7.436;2023-02-18T07:28:31;9.90;99.90
49777;DHT22;35673;51.482;7.436;2023-02-18T07:30:57;9.90;99.90
49777;DHT22;35673;51.482;7.436;2023-02-18T07:33:22;9.80;99.90
49777;DHT22;35673;51.482;7.436;2023-02-18T07:35:52;9.80;99.90
49777;DHT22;35673;51.482;7.436;2023-02-18T07:38:17;9.80;99.90
49777;DHT22;35673;51.482;7.436;2023-02-18T07:40:43;9.90;99.90
49777;DHT22;35673;51.482;7.436;2023-02-18T07:43:09;9.80;99.90
49777;DHT22;35673;51.482;7.436;2023-02-18T07:45:36;9.80;99.90
49777;DHT22;35673;51.482;7.436;2023-02-18T07:48:02;9.80;99.90
49777;DHT22;35673;51.482;7.436;2023-02-18T07:50:27;9.80;99.90
49777;DHT22;35673;51.482;7.436;2023-02-18T07:52:53;9.80;99.90
49777;DHT22;35673;51.482;7.436;2023-02-18T07:55:18;9.80;99.90
49777;DHT22;35673;51.482;7.436;2023-02-18T07:57:44;9.80;99.90
49777;DHT22;35673;51.482;7.436;2023-02-18T08:00:21;9.80;99.90
49777;DHT22;35673;51.482;7.436;2023-02-18T08:02:47;9.80;99.90
49777;DHT22;35673;51.482;7.436;2023-02-18T08:05:12;9.80;99.90
49777;DHT22;35673;51.482;7.436;2023-02-18T08:07:39;9.80;99.90
49777;DHT22;35673;51.482;7.436;2023-02-18T08:10:05;10.00;99.90
49777;DHT22;35673;51.482;7.436;2023-02-18T08:12:30;10.00;99.90
49777;DHT22;35673;51.482;7.436;2023-02-18T08:14:56;10.00;99.90
49777;DHT22;35673;51.482;7.436;2023-02-18T08:17:21;10.00;99.90
49777;DHT22;35673;51.482;7.436;2023-02-18T08:19:47;10.10;99.90
49777;DHT22;35673;51.482;7.436;2023-02-18T08:22:12;10.00;99.90
49777;DHT22;35673;51.482;7.436;2023-02-18T08:24:38;10.00;99.90
49777;DHT22;35673;51.482;7.436;2023-02-18T08:27:03;10.00;99.90
49777;DHT22;35673;51.482;7.436;2023-02-18T08:29:28;10.00;99.90
49777;DHT22;35673;51.482;7.436;2023-02-18T08:31:54;10.00;99.90
49777;DHT22;35673;51.482;7.436;2023-02-18T08:34:21;10.00;99.90
49777;DHT22;35673;51.482;7.436;2023-02-18T08:36:46;10.00;99.90
49777;DHT22;35673;51.482;7.436;2023-02-18T08:39:12;10.00;99.90
49777;DHT22;35673;51.482;7.436;2023-02-18T08:41:37;10.10;99.90
49777;DHT22;35673;51.482;7.436;2023-02-18T08:44:03;10.20;99.90
49777;DHT22;35673;51.482;7.436;2023-02-18T08:46:28;10.30;99.90
49777;DHT22;35673;51.482;7.436;2023-02-18T08:48:54;10.30;99.90
49777;DHT22;35673;51.482;7.436;2023-02-18T08:51:20;10.30;99.90
49777;DHT22;35673;51.482;7.436;2023-02-18T08:53:46;10.30;99.90
49777;DHT22;35673;51.482;7.436;2023-02-18T08:56:12;10.40;99.90
49777;DHT22;35673;51.482;7.436;2023-02-18T08:58:39;10.30;99.90
49777;DHT22;35673;51.482;7.436;2023-02-18T09:01:05;10.30;99.90
49777;DHT22;35673;51.482;7.436;2023-02-18T09:03:31;10.20;99.90
49777;DHT22;35673;51.482;7.436;2023-02-18T09:05:57;10.20;99.90
49777;DHT22;35673;51.482;7.436;2023-02-18T09:08:23;10.20;99.90
49777;DHT22;35673;51.482;7.436;2023-02-18T09:10:48;10.10;99.90
49777;DHT22;35673;51.482;7.436;2023-02-18T09:13:14;10.10;99.90
49777;DHT22;35673;51.482;7.436;2023-02-18T09:15:39;10.00;99.90
49777;DHT22;35673;51.482;7.436;2023-02-18T09:18:05;10.10;99.90
49777;DHT22;35673;51.482;7.436;2023-02-18T09:20:30;10.10;99.90
49777;DHT22;35673;51.482;7.436;2023-02-18T09:22:56;10.00;99.90
49777;DHT22;35673;51.482;7.436;2023-02-18T09:25:22;10.00;99.90
49777;DHT22;35673;51.482;7.436;2023-02-18T09:27:47;10.00;99.90
49777;DHT22;35673;51.482;7.436;2023-02-18T09:30:13;10.00;99.90
49777;DHT22;35673;51.482;7.436;2023-02-18T09:32:38;10.10;99.90
49777;DHT22;35673;51.482;7.436;2023-02-18T09:35:04;10.00;99.90
49777;DHT22;35673;51.482;7.436;2023-02-18T09:37:29;10.00;99.90
49777;DHT22;35673;51.482;7.436;2023-02-18T09:39:55;10.00;99.90
49777;DHT22;35673;51.482;7.436;2023-02-18T09:42:21;10.00;99.90
49777;DHT22;35673;51.482;7.436;2023-02-18T09:44:50;10.00;99.90
49777;DHT22;35673;51.482;7.436;2023-02-18T09:47:18;10.00;99.90
49777;DHT22;35673;51.482;7.436;2023-02-18T09:49:46;10.00;99.90
49777;DHT22;35673;51.482;7.436;2023-02-18T09:52:14;10.00;99.90
49777;DHT22;35673;51.482;7.436;2023-02-18T09:54:41;10.10;99.90
49777;DHT22;35673;51.482;7.436;2023-02-18T09:57:14;10.00;99.90
49777;DHT22;35673;51.482;7.436;2023-02-18T09:59:42;10.10;99.90
49777;DHT22;35673;51.482;7.436;2023-02-18T10:02:09;10.00;99.90
49777;DHT22;35673;51.482;7.436;2023-02-18T10:04:39;10.00;99.90
49777;DHT22;35673;51.482;7.436;2023-02-18T10:07:09;10.00;99.90
49777;DHT22;35673;51.482;7.436;2023-02-18T10:09:42;9.90;99.90
49777;DHT22;35673;51.482;7.436;2023-02-18T10:12:15;9.80;99.90
49777;DHT22;35673;51.482;7.436;2023-02-18T10:14:47;9.80;99.90
49777;DHT22;35673;51.482;7.436;2023-02-18T10:17:12;9.80;99.90
49777;DHT22;35673;51.482;7.436;2023-02-18T10:19:39;9.80;99.90
49777;DHT22;35673;51.482;7.436;2023-02-18T10:22:05;9.70;99.90
49777;DHT22;35673;51.482;7.436;2023-02-18T10:24:32;9.80;99.90
49777;DHT22;35673;51.482;7.436;2023-02-18T10:26:58;9.70;99.90
49777;DHT22;35673;51.482;7.436;2023-02-18T10:29:25;9.80;99.90
49777;DHT22;35673;51.482;7.436;2023-02-18T10:36:54;9.50;99.90
49777;DHT22;35673;51.482;7.436;2023-02-18T10:39:31;9.40;99.90
49777;DHT22;35673;51.482;7.436;2023-02-18T10:42:11;9.40;99.90
49777;DHT22;35673;51.482;7.436;2023-02-18T10:49:58;9.40;99.90
49777;DHT22;35673;51.482;7.436;2023-02-18T10:52:26;9.40;99.90
49777;DHT22;35673;51.482;7.436;2023-02-18T10:57:19;9.40;99.90
49777;DHT22;35673;51.482;7.436;2023-02-18T10:59:59;9.40;99.90
49777;DHT22;35673;51.482;7.436;2023-02-18T11:02:26;9.20;99.90
49777;DHT22;35673;51.482;7.436;2023-02-18T11:04:55;9.20;99.90
49777;DHT22;35673;51.482;7.436;2023-02-18T11:07:22;9.20;99.90
49777;DHT22;35673;51.482;7.436;2023-02-18T11:09:49;9.20;99.90
49777;DHT22;35673;51.482;7.436;2023-02-18T11:12:18;9.10;99.90
49777;DHT22;35673;51.482;7.436;2023-02-18T11:14:45;9.20;99.90
49777;DHT22;35673;51.482;7.436;2023-02-18T11:17:19;9.30;99.90
49777;DHT22;35673;51.482;7.436;2023-02-18T11:19:52;9.20;99.90
49777;DHT22;35673;51.482;7.436;2023-02-18T11:22:20;9.30;99.90
49777;DHT22;35673;51.482;7.436;2023-02-18T11:24:46;9.30;99.90
49777;DHT22;35673;51.482;7.436;2023-02-18T11:27:20;9.30;99.90
49777;DHT22;35673;51.482;7.436;2023-02-18T11:29:48;9.30;99.90
49777;DHT22;35673;51.482;7.436;2023-02-18T11:32:14;9.20;99.90
49777;DHT22;35673;51.482;7.436;2023-02-18T11:34:40;9.30;99.90
49777;DHT22;35673;51.482;7.436;2023-02-18T11:37:25;9.20;99.90
49777;DHT22;35673;51.482;7.436;2023-02-18T11:39:51;9.30;99.90
49777;DHT22;35673;51.482;7.436;2023-02-18T11:42:18;9.10;99.90
49777;DHT22;35673;51.482;7.436;2023-02-18T11:49:42;9.20;99.90
49777;DHT22;35673;51.482;7.436;2023-02-18T11:52:24;9.20;99.90
49777;DHT22;35673;51.482;7.436;2023-02-18T11:55:07;9.20;99.90
49777;DHT22;35673;51.482;7.436;2023-02-18T11:57:37;9.20;99.90
49777;DHT22;35673;51.482;7.436;2023-02-18T12:00:09;9.20;99.90
49777;DHT22;35673;51.482;7.436;2023-02-18T12:02:39;9.20;99.90
49777;DHT22;35673;51.482;7.436;2023-02-18T12:07:41;9.20;99.90
49777;DHT22;35673;51.482;7.436;2023-02-18T12:10:12;9.20;99.90
49777;DHT22;35673;51.482;7.436;2023-02-18T12:12:53;9.30;99.90
49777;DHT22;35673;51.482;7.436;2023-02-18T12:15:25;9.30;99.90
49777;DHT22;35673;51.482;7.436;2023-02-18T12:18:02;9.40;99.90
49777;DHT22;35673;51.482;7.436;2023-02-18T12:20:42;9.30;99.90
49777;DHT22;35673;51.482;7.436;2023-02-18T12:23:29;9.30;99.90
49777;DHT22;35673;51.482;7.436;2023-02-18T12:26:34;9.30;99.90
49777;DHT22;35673;51.482;7.436;2023-02-18T12:55:02;9.40;99.90
49777;DHT22;35673;51.482;7.436;2023-02-18T12:57:38;9.30;99.90
49777;DHT22;35673;51.482;7.436;2023-02-18T13:05:37;9.30;99.90
49777;DHT22;35673;51.482;7.436;2023-02-18T13:10:49;9.40;99.90
49777;DHT22;35673;51.482;7.436;2023-02-18T13:13:20;9.40;99.90
49777;DHT22;35673;51.482;7.436;2023-02-18T13:18:17;9.50;99.90
49777;DHT22;35673;51.482;7.436;2023-02-18T13:20:46;9.50;99.90
49777;DHT22;35673;51.482;7.436;2023-02-18T13:23:17;9.50;99.90
49777;DHT22;35673;51.482;7.436;2023-02-18T13:25:43;9.40;99.90
49777;DHT22;35673;51.482;7.436;2023-02-18T13:35:56;9.50;99.90
49777;DHT22;35673;51.482;7.436;2023-02-18T13:38:27;9.50;99.90
49777;DHT22;35673;51.482;7.436;2023-02-18T13:40:55;9.50;99.90
49777;DHT22;35673;51.482;7.436;2023-02-18T13:43:34;9.40;99.90
49777;DHT22;35673;51.482;7.436;2023-02-18T13:48:33;9.60;99.90
49777;DHT22;35673;51.482;7.436;2023-02-18T13:51:03;9.60;99.90
49777;DHT22;35673;51.482;7.436;2023-02-18T13:53:30;9.60;99.90
49777;DHT22;35673;51.482;7.436;2023-02-18T13:58:23;9.70;99.90
49777;DHT22;35673;51.482;7.436;2023-02-18T14:01:24;9.60;99.90
49777;DHT22;35673;51.482;7.436;2023-02-18T14:06:14;9.60;99.90
49777;DHT22;35673;51.482;7.436;2023-02-18T14:08:39;9.50;99.90
49777;DHT22;35673;51.482;7.436;2023-02-18T14:11:31;9.50;99.90
49777;DHT22;35673;51.482;7.436;2023-02-18T14:14:12;9.60;99.90
49777;DHT22;35673;51.482;7.436;2023-02-18T14:19:28;9.50;99.90
49777;DHT22;35673;51.482;7.436;2023-02-18T14:22:21;9.60;99.90
49777;DHT22;35673;51.482;7.436;2023-02-18T14:24:43;9.60;99.90
49777;DHT22;35673;51.482;7.436;2023-02-18T14:27:13;9.60;99.90
49777;DHT22;35673;51.482;7.436;2023-02-18T14:29:39;9.60;99.90
49777;DHT22;35673;51.482;7.436;2023-02-18T14:32:11;9.70;99.90
49777;DHT22;35673;51.482;7.436;2023-02-18T14:34:41;9.60;99.90
49777;DHT22;35673;51.482;7.436;2023-02-18T14:45:16;9.70;99.90
49777;DHT22;35673;51.482;7.436;2023-02-18T14:50:31;9.80;99.90
49777;DHT22;35673;51.482;7.436;2023-02-18T14:52:58;9.80;99.90
49777;DHT22;35673;51.482;7.436;2023-02-18T14:55:32;9.80;99.90
49777;DHT22;35673;51.482;7.436;2023-02-18T15:00:24;9.80;99.90
49777;DHT22;35673;51.482;7.436;2023-02-18T15:02:51;9.80;99.90
49777;DHT22;35673;51.482;7.436;2023-02-18T15:05:19;9.80;99.90
49777;DHT22;35673;51.482;7.436;2023-02-18T15:10:34;9.80;99.90
49777;DHT22;35673;51.482;7.436;2023-02-18T15:13:01;9.80;99.90
49777;DHT22;35673;51.482;7.436;2023-02-18T15:15:26;9.70;99.90
49777;DHT22;35673;51.482;7.436;2023-02-18T15:17:52;9.80;99.90
49777;DHT22;35673;51.482;7.436;2023-02-18T15:20:17;9.80;99.90
49777;DHT22;35673;51.482;7.436;2023-02-18T15:22:43;9.80;99.90
49777;DHT22;35673;51.482;7.436;2023-02-18T15:25:10;9.80;99.90
49777;DHT22;35673;51.482;7.436;2023-02-18T15:27:38;9.80;99.90
49777;DHT22;35673;51.482;7.436;2023-02-18T15:30:18;9.90;99.90
49777;DHT22;35673;51.482;7.436;2023-02-18T15:32:48;9.90;99.90
49777;DHT22;35673;51.482;7.436;2023-02-18T15:35:15;9.90;99.90
49777;DHT22;35673;51.482;7.436;2023-02-18T15:37:43;9.90;99.90
49777;DHT22;35673;51.482;7.436;2023-02-18T15:40:13;9.90;99.90
49777;DHT22;35673;51.482;7.436;2023-02-18T15:42:38;9.90;99.90
49777;DHT22;35673;51.482;7.436;2023-02-18T15:45:13;10.00;99.90
49777;DHT22;35673;51.482;7.436;2023-02-18T15:47:50;10.00;99.90
49777;DHT22;35673;51.482;7.436;2023-02-18T15:50:20;9.90;99.90
49777;DHT22;35673;51.482;7.436;2023-02-18T15:52:46;10.00;99.90
49777;DHT22;35673;51.482;7.436;2023-02-18T15:57:58;10.00;99.90
49777;DHT22;35673;51.482;7.436;2023-02-18T16:00:26;10.00;99.90
49777;DHT22;35673;51.482;7.436;2023-02-18T16:02:56;10.00;99.90
49777;DHT22;35673;51.482;7.436;2023-02-18T16:05:26;10.00;99.90
49777;DHT22;35673;51.482;7.436;2023-02-18T16:07:56;10.00;99.90
49777;DHT22;35673;51.482;7.436;2023-02-18T16:10:23;10.00;99.90
49777;DHT22;35673;51.482;7.436;2023-02-18T16:12:50;10.00;99.90
49777;DHT22;35673;51.482;7.436;2023-02-18T16:15:28;10.00;99.90
49777;DHT22;35673;51.482;7.436;2023-02-18T16:17:53;10.00;99.90
49777;DHT22;35673;51.482;7.436;2023-02-18T16:22:48;10.10;99.90
49777;DHT22;35673;51.482;7.436;2023-02-18T16:25:21;10.10;99.90
49777;DHT22;35673;51.482;7.436;2023-02-18T16:30:22;10.10;99.90
49777;DHT22;35673;51.482;7.436;2023-02-18T16:32:48;10.00;99.90
49777;DHT22;35673;51.482;7.436;2023-02-18T16:35:13;10.10;99.90
49777;DHT22;35673;51.482;7.436;2023-02-18T16:37:40;10.10;99.90
49777;DHT22;35673;51.482;7.436;2023-02-18T16:42:44;10.10;99.90
49777;DHT22;35673;51.482;7.436;2023-02-18T16:45:12;10.10;99.90
49777;DHT22;35673;51.482;7.436;2023-02-18T16:47:38;10.10;99.90
49777;DHT22;35673;51.482;7.436;2023-02-18T16:50:04;10.10;99.90
49777;DHT22;35673;51.482;7.436;2023-02-18T16:52:29;10.10;99.90
49777;DHT22;35673;51.482;7.436;2023-02-18T16:54:55;10.10;99.90
49777;DHT22;35673;51.482;7.436;2023-02-18T16:57:20;10.10;99.90
49777;DHT22;35673;51.482;7.436;2023-02-18T16:59:46;10.10;99.90
49777;DHT22;35673;51.482;7.436;2023-02-18T17:02:17;10.10;99.90
49777;DHT22;35673;51.482;7.436;2023-02-18T17:04:43;10.10;99.90
49777;DHT22;35673;51.482;7.436;2023-02-18T17:07:09;10.10;99.90
49777;DHT22;35673;51.482;7.436;2023-02-18T17:09:35;10.10;99.90
49777;DHT22;35673;51.482;7.436;2023-02-18T17:12:00;10.10;99.90
49777;DHT22;35673;51.482;7.436;2023-02-18T17:14:27;10.10;99.90
49777;DHT22;35673;51.482;7.436;2023-02-18T17:16:53;10.10;99.90
49777;DHT22;35673;51.482;7.436;2023-02-18T17:19:19;10.10;99.90
49777;DHT22;35673;51.482;7.436;2023-02-18T17:21:44;10.10;99.90
49777;DHT22;35673;51.482;7.436;2023-02-18T17:24:13;10.20;99.90
49777;DHT22;35673;51.482;7.436;2023-02-18T17:26:39;10.10;99.90
49777;DHT22;35673;51.482;7.436;2023-02-18T17:29:05;10.20;99.90
49777;DHT22;35673;51.482;7.436;2023-02-18T17:31:35;10.10;99.90
49777;DHT22;35673;51.482;7.436;2023-02-18T17:34:05;10.10;99.90
49777;DHT22;35673;51.482;7.436;2023-02-18T17:36:32;10.20;99.90
49777;DHT22;35673;51.482;7.436;2023-02-18T17:38:57;10.20;99.90
49777;DHT22;35673;51.482;7.436;2023-02-18T17:41:24;10.20;99.90
49777;DHT22;35673;51.482;7.436;2023-02-18T17:43:49;10.20;99.90
49777;DHT22;35673;51.482;7.436;2023-02-18T17:46:15;10.20;99.90
49777;DHT22;35673;51.482;7.436;2023-02-18T17:48:44;10.20;99.90
49777;DHT22;35673;51.482;7.436;2023-02-18T17:51:24;10.20;99.90
49777;DHT22;35673;51.482;7.436;2023-02-18T17:53:49;10.20;99.90
49777;DHT22;35673;51.482;7.436;2023-02-18T17:56:15;10.20;99.90
49777;DHT22;35673;51.482;7.436;2023-02-18T17:58:40;10.20;99.90